Time;durP1;ratioP1;P1;durP2;ratioP2;P2;SDS_P1;SDS_P2;PMS_P1;PMS_P2;Temp;Humidity;BMP_temperature;BMP_pressure;BME280_temperature;BME280_humidity;BME280_pressure;Samples;Min_cycle;Max_cycle;Signal;HPM_P1;HPM_P2
2021/01/03 00:02:02;;;;;;;37.20;23.07;;;0.10;99.90;;;;;;5050009;28;20410;-58
2021/01/03 00:04:28;;;;;;;36.53;22.73;;;0.00;99.90;;;;;;5041126;28;20520;-56
2021/01/03 00:06:54;;;;;;;34.40;21.23;;;0.00;99.90;;;;;;5040714;28;20513;-59
2021/01/03 00:09:22;;;;;;;35.10;21.83;;;0.00;99.90;;;;;;5048895;28;20529;-59
2021/01/03 00:11:47;;;;;;;36.63;23.27;;;0.10;99.90;;;;;;5038898;28;20433;-56
2021/01/03 00:14:13;;;;;;;33.17;21.73;;;0.30;99.90;;;;;;5042809;28;20407;-55
2021/01/03 00:16:39;;;;;;;34.87;20.97;;;0.40;99.90;;;;;;5042874;28;20204;-57
2021/01/03 00:19:05;;;;;;;33.60;21.10;;;0.60;99.90;;;;;;5021509;28;20219;-55
2021/01/03 00:21:31;;;;;;;37.77;22.90;;;0.80;99.90;;;;;;5039150;28;20209;-49
2021/01/03 00:23:57;;;;;;;34.27;21.43;;;1.00;99.90;;;;;;5039332;28;20399;-53
2021/01/03 00:26:22;;;;;;;35.47;21.03;;;1.10;99.90;;;;;;5040049;28;20421;-56
2021/01/03 00:28:48;;;;;;;37.67;22.90;;;1.20;99.90;;;;;;5037367;28;20676;-56
2021/01/03 00:31:14;;;;;;;34.90;22.07;;;1.30;99.90;;;;;;5040332;28;20176;-56
2021/01/03 00:33:40;;;;;;;34.83;21.87;;;1.40;99.90;;;;;;5040451;28;20199;-52
2021/01/03 00:36:06;;;;;;;36.57;22.53;;;1.40;99.90;;;;;;5042229;28;20208;-55
2021/01/03 00:38:32;;;;;;;34.63;21.67;;;1.50;99.90;;;;;;5036089;28;20286;-55
2021/01/03 00:40:58;;;;;;;33.23;21.10;;;1.60;99.90;;;;;;5044973;28;20450;-57
2021/01/03 00:43:25;;;;;;;35.97;21.73;;;1.60;99.90;;;;;;5038199;28;20235;-56
2021/01/03 00:45:51;;;;;;;35.60;22.50;;;1.60;99.90;;;;;;5038897;28;20520;-57
2021/01/03 00:48:16;;;;;;;32.83;21.57;;;1.70;99.90;;;;;;5038116;28;20961;-52
2021/01/03 00:50:42;;;;;;;35.37;21.83;;;1.60;99.90;;;;;;5039808;28;20269;-55
2021/01/03 00:53:08;;;;;;;35.53;21.63;;;1.60;99.90;;;;;;5036673;28;20187;-54
2021/01/03 00:55:33;;;;;;;36.97;22.07;;;1.70;99.90;;;;;;5031638;28;20250;-53
2021/01/03 00:57:59;;;;;;;36.23;22.57;;;1.70;99.90;;;;;;5038521;28;20223;-59
2021/01/03 01:00:30;;;;;;;36.77;23.30;;;1.80;99.90;;;;;;5019361;28;20180;-56
2021/01/03 01:02:57;;;;;;;39.60;23.60;;;1.80;99.90;;;;;;5044396;28;20640;-59
2021/01/03 01:05:23;;;;;;;38.23;23.23;;;1.80;99.90;;;;;;5023006;28;20484;-59
2021/01/03 01:07:49;;;;;;;36.30;21.47;;;2.20;99.90;;;;;;5021664;28;20487;-54
2021/01/03 01:10:26;;;;;;;35.77;22.03;;;1.80;99.90;;;;;;5015099;28;20455;-56
2021/01/03 01:12:53;;;;;;;35.87;21.63;;;1.80;99.90;;;;;;5035335;28;20196;-59
2021/01/03 01:15:21;;;;;;;39.00;23.33;;;1.80;99.90;;;;;;5034658;28;20449;-59
2021/01/03 01:17:53;;;;;;;34.97;22.17;;;1.90;99.90;;;;;;5044488;28;20457;-59
2021/01/03 01:20:21;;;;;;;36.77;23.70;;;1.90;99.90;;;;;;5036838;28;20406;-60
2021/01/03 01:22:47;;;;;;;39.03;23.70;;;2.00;99.90;;;;;;5009496;28;20439;-59
2021/01/03 01:25:14;;;;;;;36.27;22.73;;;2.00;99.90;;;;;;5041815;28;20428;-59
2021/01/03 01:27:40;;;;;;;40.10;23.53;;;2.00;99.90;;;;;;5041731;28;20180;-55
2021/01/03 01:30:07;;;;;;;35.63;22.70;;;2.00;99.90;;;;;;5030068;28;20431;-59
2021/01/03 01:32:33;;;;;;;38.87;23.20;;;2.00;99.90;;;;;;5033382;28;20203;-55
2021/01/03 01:34:59;;;;;;;40.33;24.20;;;2.00;99.90;;;;;;5037896;28;20878;-59
2021/01/03 01:37:25;;;;;;;39.33;24.83;;;1.90;99.90;;;;;;5034790;28;20191;-57
2021/01/03 01:39:50;;;;;;;40.20;23.40;;;1.90;99.90;;;;;;5037643;28;20263;-59
2021/01/03 01:42:17;;;;;;;39.83;24.03;;;1.90;99.90;;;;;;5028710;28;20439;-59
2021/01/03 01:44:44;;;;;;;35.87;22.17;;;1.90;99.90;;;;;;5021089;28;20179;-59
2021/01/03 01:47:24;;;;;;;40.23;25.27;;;2.00;99.90;;;;;;5036455;28;20436;-56
2021/01/03 01:49:53;;;;;;;39.57;24.23;;;2.00;99.90;;;;;;5029994;28;20640;-56
2021/01/03 01:52:20;;;;;;;38.63;22.80;;;2.00;99.90;;;;;;5035337;28;20406;-59
2021/01/03 01:54:52;;;;;;;39.30;23.77;;;2.00;99.90;;;;;;5021735;28;20780;-59
2021/01/03 01:57:28;;;;;;;39.93;24.13;;;2.00;99.90;;;;;;5041054;28;20437;-56
2021/01/03 02:00:15;;;;;;;36.90;23.87;;;2.00;99.90;;;;;;5040450;28;20409;-53
2021/01/03 02:03:02;;;;;;;39.77;24.37;;;2.00;99.90;;;;;;5021522;28;20413;-57
2021/01/03 02:06:03;;;;;;;43.07;25.00;;;2.00;99.90;;;;;;5036456;28;20509;-59
2021/01/03 02:08:34;;;;;;;40.53;24.63;;;1.70;99.90;;;;;;4941186;29;20971;-59
2021/01/03 02:11:01;;;;;;;39.90;24.23;;;1.70;99.90;;;;;;5003943;28;20423;-56
2021/01/03 02:13:37;;;;;;;40.60;24.57;;;1.80;99.90;;;;;;5018031;28;20441;-59
2021/01/03 02:16:17;;;;;;;45.93;26.80;;;1.80;99.90;;;;;;5027629;28;20454;-58
2021/01/03 02:18:45;;;;;;;46.30;27.33;;;1.80;99.90;;;;;;5034222;28;20449;-50
2021/01/03 02:21:39;;;;;;;40.73;25.27;;;1.70;99.90;;;;;;5036195;28;20426;-60
2021/01/03 02:24:16;;;;;;;43.27;25.97;;;1.70;99.90;;;;;;5036974;28;20452;-60
2021/01/03 02:26:50;;;;;;;45.07;26.63;;;1.70;99.90;;;;;;5022844;28;20488;-60
2021/01/03 02:29:19;;;;;;;45.03;24.60;;;2.10;99.90;;;;;;5036772;28;20492;-54
2021/01/03 02:31:53;;;;;;;46.13;27.03;;;1.70;99.90;;;;;;5034160;28;20782;-51
2021/01/03 02:34:40;;;;;;;45.93;27.00;;;1.70;99.90;;;;;;5037432;28;20418;-54
2021/01/03 02:37:24;;;;;;;42.63;25.83;;;1.80;99.90;;;;;;5033243;28;20473;-54
2021/01/03 02:40:07;;;;;;;44.93;25.80;;;1.80;99.90;;;;;;5036268;28;20513;-60
2021/01/03 02:42:38;;;;;;;46.07;25.63;;;1.80;99.90;;;;;;5026444;28;20532;-60
2021/01/03 02:45:15;;;;;;;42.60;25.93;;;1.70;99.90;;;;;;5037457;28;20411;-60
2021/01/03 02:47:41;;;;;;;42.20;24.10;;;1.80;99.90;;;;;;5037958;28;20422;-51
2021/01/03 02:50:09;;;;;;;42.87;25.27;;;1.80;99.90;;;;;;5036455;28;20770;-57
2021/01/03 02:52:39;;;;;;;46.20;25.87;;;1.90;99.90;;;;;;5038375;28;20180;-59
2021/01/03 02:55:07;;;;;;;47.97;26.70;;;2.00;99.90;;;;;;5042882;28;20423;-59
2021/01/03 02:57:33;;;;;;;39.93;24.03;;;1.90;99.90;;;;;;5038085;28;20458;-60
2021/01/03 02:59:58;;;;;;;41.97;24.40;;;1.90;99.90;;;;;;5041697;28;20403;-60
2021/01/03 03:02:24;;;;;;;44.90;26.60;;;1.90;99.90;;;;;;5033763;28;20231;-53
2021/01/03 03:04:50;;;;;;;43.17;25.00;;;1.90;99.90;;;;;;5033557;28;20191;-59
2021/01/03 03:07:17;;;;;;;44.13;26.00;;;1.90;99.90;;;;;;5042066;28;20179;-58
2021/01/03 03:09:43;;;;;;;46.93;26.97;;;1.80;99.90;;;;;;5041295;28;20184;-51
2021/01/03 03:12:08;;;;;;;44.77;25.27;;;1.80;99.90;;;;;;5043559;28;20804;-55
2021/01/03 03:14:34;;;;;;;42.60;26.23;;;1.60;99.90;;;;;;5012114;28;20247;-56
2021/01/03 03:17:03;;;;;;;49.50;27.07;;;1.60;99.90;;;;;;5036618;28;20219;-56
2021/01/03 03:19:30;;;;;;;39.53;24.67;;;1.60;99.90;;;;;;5043659;28;20468;-60
2021/01/03 03:21:56;;;;;;;51.47;31.30;;;1.60;99.90;;;;;;5042943;28;20450;-54
2021/01/03 03:24:21;;;;;;;43.43;25.57;;;1.50;99.90;;;;;;5035956;28;20489;-57
2021/01/03 03:26:54;;;;;;;40.67;24.47;;;1.60;99.90;;;;;;5044206;28;20199;-60
2021/01/03 03:29:21;;;;;;;40.33;23.47;;;1.60;99.90;;;;;;5019423;28;20215;-58
2021/01/03 03:31:48;;;;;;;45.60;25.50;;;1.60;99.90;;;;;;5024292;28;20517;-60
2021/01/03 03:34:14;;;;;;;45.23;25.83;;;1.60;99.90;;;;;;5027124;28;20422;-57
2021/01/03 03:36:40;;;;;;;45.13;25.67;;;1.60;99.90;;;;;;5039519;28;20454;-57
2021/01/03 03:39:05;;;;;;;43.83;26.87;;;1.70;99.90;;;;;;5020834;28;20446;-52
2021/01/03 03:41:31;;;;;;;43.70;25.70;;;1.70;99.90;;;;;;5035411;28;20202;-54
2021/01/03 03:43:57;;;;;;;43.70;26.20;;;1.80;99.90;;;;;;5039172;28;20187;-50
2021/01/03 03:46:22;;;;;;;41.03;24.57;;;1.90;99.90;;;;;;5037277;28;20184;-58
2021/01/03 03:48:48;;;;;;;39.07;23.43;;;2.00;99.90;;;;;;5037302;28;20274;-58
2021/01/03 03:51:21;;;;;;;39.80;24.63;;;2.10;99.90;;;;;;5035850;28;20195;-60
2021/01/03 03:53:47;;;;;;;37.10;22.87;;;2.80;99.90;;;;;;5041542;28;20180;-58
2021/01/03 03:56:14;;;;;;;37.80;22.77;;;2.20;99.90;;;;;;5039450;28;21100;-58
2021/01/03 03:58:40;;;;;;;41.37;24.30;;;2.30;99.90;;;;;;5022155;28;20490;-52
2021/01/03 04:01:06;;;;;;;40.70;24.87;;;2.30;99.90;;;;;;5038856;28;20500;-50
2021/01/03 04:03:32;;;;;;;39.57;23.73;;;2.30;99.90;;;;;;5035352;28;20196;-55
2021/01/03 04:05:58;;;;;;;41.43;24.27;;;2.30;99.90;;;;;;5039512;28;20411;-55
2021/01/03 04:08:23;;;;;;;37.73;23.53;;;2.30;99.90;;;;;;5042200;28;20230;-59
2021/01/03 04:10:49;;;;;;;39.07;23.33;;;3.10;99.90;;;;;;5038524;28;20682;-58
2021/01/03 04:13:15;;;;;;;37.47;23.83;;;2.30;99.90;;;;;;5025457;28;20187;-58
2021/01/03 04:15:41;;;;;;;38.17;22.90;;;2.30;99.90;;;;;;5044818;28;20207;-58
2021/01/03 04:18:07;;;;;;;39.53;24.33;;;2.30;99.90;;;;;;5041708;28;20204;-55
2021/01/03 04:20:32;;;;;;;37.80;23.83;;;2.30;99.90;;;;;;5037605;28;20196;-59
2021/01/03 04:22:59;;;;;;;36.43;23.30;;;2.30;99.90;;;;;;5039307;28;20422;-56
2021/01/03 04:25:25;;;;;;;38.63;24.03;;;2.40;99.90;;;;;;5043772;28;20176;-60
2021/01/03 04:27:54;;;;;;;36.93;24.10;;;3.50;99.90;;;;;;5021288;28;20561;-52
2021/01/03 04:30:21;;;;;;;41.60;24.60;;;2.40;99.90;;;;;;5038463;28;20190;-57
2021/01/03 04:32:48;;;;;;;37.40;24.00;;;2.40;99.90;;;;;;5036970;28;20446;-57
2021/01/03 04:35:13;;;;;;;38.07;22.57;;;2.40;99.90;;;;;;5019582;28;20975;-55
2021/01/03 04:37:40;;;;;;;36.17;23.40;;;2.40;99.90;;;;;;5036083;28;20430;-59
2021/01/03 04:40:08;;;;;;;39.87;24.40;;;2.30;99.90;;;;;;5040504;28;20191;-57
2021/01/03 04:42:34;;;;;;;37.90;23.67;;;2.40;99.90;;;;;;5035578;28;20545;-59
2021/01/03 04:45:13;;;;;;;38.20;23.17;;;2.40;99.90;;;;;;5037491;28;20880;-59
2021/01/03 04:47:50;;;;;;;36.53;23.20;;;2.50;99.90;;;;;;5038891;28;20430;-59
2021/01/03 04:50:46;;;;;;;35.43;23.03;;;2.40;99.90;;;;;;5033104;28;20446;-50
2021/01/03 04:53:33;;;;;;;39.93;23.00;;;2.40;99.90;;;;;;5019964;28;20430;-60
2021/01/03 04:56:44;;;;;;;35.93;22.30;;;2.40;99.90;;;;;;5035009;28;20465;-59
2021/01/03 04:59:31;;;;;;;35.37;22.27;;;2.50;99.90;;;;;;5044897;28;20775;-60
2021/01/03 05:02:18;;;;;;;35.20;21.80;;;2.50;99.90;;;;;;5022241;28;20493;-53
2021/01/03 05:05:22;;;;;;;37.17;23.67;;;2.40;99.90;;;;;;5037587;28;20441;-57
2021/01/03 05:08:16;;;;;;;39.13;23.47;;;2.30;99.90;;;;;;5034687;28;20454;-51
2021/01/03 05:10:45;;;;;;;34.63;22.57;;;2.30;99.90;;;;;;5015598;28;20488;-60
2021/01/03 05:13:54;;;;;;;36.77;22.53;;;2.30;99.90;;;;;;5045150;28;20426;-60
2021/01/03 05:16:20;;;;;;;36.93;22.33;;;2.40;99.90;;;;;;5039247;28;20541;-60
2021/01/03 05:18:46;;;;;;;35.37;22.83;;;2.40;99.90;;;;;;5038525;28;20524;-55
2021/01/03 05:21:12;;;;;;;35.17;22.63;;;2.40;99.90;;;;;;5041402;28;20422;-59
2021/01/03 05:23:55;;;;;;;36.60;23.43;;;2.50;99.90;;;;;;5039703;28;20180;-51
2021/01/03 05:26:34;;;;;;;37.03;23.60;;;2.50;99.90;;;;;;5042292;28;20184;-59
2021/01/03 05:29:00;;;;;;;33.57;21.80;;;2.50;99.90;;;;;;5034817;28;20446;-56
2021/01/03 05:31:27;;;;;;;34.73;22.70;;;2.50;99.90;;;;;;5038172;28;20766;-57
2021/01/03 05:34:05;;;;;;;35.17;22.67;;;2.50;99.90;;;;;;5036883;28;20626;-60
2021/01/03 05:36:36;;;;;;;38.23;24.63;;;2.50;99.90;;;;;;5036614;28;20504;-52
2021/01/03 05:39:10;;;;;;;35.30;21.67;;;2.40;99.90;;;;;;5036251;28;20441;-53
2021/01/03 05:41:52;;;;;;;35.40;21.87;;;2.40;99.90;;;;;;5036379;28;20457;-57
2021/01/03 05:44:27;;;;;;;36.03;23.30;;;2.50;99.90;;;;;;5041618;28;20423;-54
2021/01/03 05:47:02;;;;;;;36.67;23.40;;;2.50;99.90;;;;;;5041112;28;20444;-60
2021/01/03 05:49:28;;;;;;;34.50;22.37;;;2.60;99.90;;;;;;5021800;28;20549;-56
2021/01/03 05:52:27;;;;;;;37.43;23.50;;;2.60;99.90;;;;;;5041159;28;20415;-57
2021/01/03 05:54:54;;;;;;;35.30;22.47;;;2.60;99.90;;;;;;5040423;28;20425;-59
2021/01/03 05:57:32;;;;;;;34.13;23.07;;;2.70;99.90;;;;;;5019244;28;20434;-55
2021/01/03 05:59:58;;;;;;;36.23;23.00;;;2.60;99.90;;;;;;5033223;28;20441;-55
2021/01/03 06:02:27;;;;;;;36.20;23.50;;;2.70;99.90;;;;;;5046215;28;20402;-59
2021/01/03 06:05:13;;;;;;;35.17;22.80;;;2.70;99.90;;;;;;5035851;28;20194;-55
2021/01/03 06:07:39;;;;;;;35.50;22.80;;;2.70;99.90;;;;;;5037687;28;20513;-57
2021/01/03 06:10:28;;;;;;;36.30;22.23;;;2.70;99.90;;;;;;5041600;28;20446;-59
2021/01/03 06:12:58;;;;;;;37.60;24.03;;;2.70;99.90;;;;;;5038295;28;20267;-55
2021/01/03 06:15:30;;;;;;;34.77;22.13;;;2.70;99.90;;;;;;5040459;28;20453;-59
2021/01/03 06:17:59;;;;;;;36.27;22.93;;;2.70;99.90;;;;;;5033262;28;20493;-53
2021/01/03 06:20:29;;;;;;;34.53;22.37;;;2.70;99.90;;;;;;5035724;28;20422;-59
2021/01/03 06:23:10;;;;;;;38.67;24.03;;;2.80;99.90;;;;;;5038788;28;20423;-60
2021/01/03 06:25:50;;;;;;;33.10;21.47;;;2.80;99.90;;;;;;5021830;28;20454;-56
2021/01/03 06:28:22;;;;;;;33.83;22.97;;;2.80;99.90;;;;;;5039542;28;20465;-54
2021/01/03 06:31:18;;;;;;;33.33;22.03;;;2.70;99.90;;;;;;5037001;28;20445;-59
2021/01/03 06:34:12;;;;;;;34.67;23.30;;;2.60;99.90;;;;;;5033534;28;20427;-57
2021/01/03 06:36:45;;;;;;;33.90;22.50;;;2.60;99.90;;;;;;5034637;28;20462;-55
2021/01/03 06:39:35;;;;;;;36.70;22.93;;;2.60;99.90;;;;;;5034626;28;20430;-54
2021/01/03 06:42:25;;;;;;;32.17;20.40;;;2.60;99.90;;;;;;5036742;28;20398;-57
2021/01/03 06:45:25;;;;;;;36.37;22.77;;;2.70;99.90;;;;;;5034362;28;20447;-57
2021/01/03 06:48:24;;;;;;;31.83;21.33;;;2.70;99.90;;;;;;5035175;28;20453;-60
2021/01/03 06:50:55;;;;;;;33.33;22.20;;;2.80;99.90;;;;;;5040195;28;20398;-59
2021/01/03 06:53:58;;;;;;;33.57;21.97;;;2.80;99.90;;;;;;5034792;28;20505;-56
2021/01/03 06:56:51;;;;;;;34.23;22.10;;;2.90;99.90;;;;;;5035546;28;20457;-60
2021/01/03 06:59:38;;;;;;;36.10;22.83;;;2.90;99.90;;;;;;5037935;28;20473;-54
2021/01/03 07:02:04;;;;;;;35.23;23.30;;;2.90;99.90;;;;;;5036290;28;20451;-57
2021/01/03 07:04:38;;;;;;;35.33;22.67;;;3.10;99.90;;;;;;5042664;28;20437;-54
2021/01/03 07:07:28;;;;;;;38.07;24.23;;;2.90;99.90;;;;;;5038292;28;20189;-56
2021/01/03 07:10:02;;;;;;;36.00;22.40;;;2.90;99.90;;;;;;5038873;28;20446;-57
2021/01/03 07:12:41;;;;;;;34.23;21.80;;;2.90;99.90;;;;;;5038818;28;20445;-59
2021/01/03 07:15:31;;;;;;;31.37;21.63;;;2.90;99.90;;;;;;5006789;28;20446;-57
2021/01/03 07:17:57;;;;;;;34.27;22.73;;;3.00;99.90;;;;;;5042131;28;20427;-56
2021/01/03 07:20:45;;;;;;;30.80;21.17;;;3.00;99.90;;;;;;5037267;28;20913;-53
2021/01/03 07:23:17;;;;;;;34.23;22.43;;;3.00;99.90;;;;;;5039353;28;20168;-59
2021/01/03 07:26:07;;;;;;;32.93;21.03;;;2.90;99.90;;;;;;5021861;28;20506;-58
2021/01/03 07:28:33;;;;;;;32.63;22.17;;;2.90;99.90;;;;;;5041983;28;20430;-59
2021/01/03 07:31:13;;;;;;;32.97;22.07;;;3.00;99.90;;;;;;5032026;28;20845;-52
2021/01/03 07:33:50;;;;;;;32.73;21.97;;;3.00;99.90;;;;;;5034078;28;20415;-59
2021/01/03 07:36:33;;;;;;;37.10;23.50;;;3.10;99.90;;;;;;5033968;28;20477;-58
2021/01/03 07:39:10;;;;;;;37.70;23.67;;;3.10;99.90;;;;;;5022105;28;20450;-52
2021/01/03 07:41:37;;;;;;;37.43;24.30;;;3.10;99.90;;;;;;5036547;28;20508;-53
2021/01/03 07:44:32;;;;;;;38.57;23.50;;;3.10;99.90;;;;;;5043075;28;20468;-59
2021/01/03 07:47:00;;;;;;;45.63;31.07;;;3.10;99.90;;;;;;5025769;28;20510;-55
2021/01/03 07:49:34;;;;;;;42.20;27.97;;;3.10;99.90;;;;;;5036382;28;20476;-59
2021/01/03 07:52:30;;;;;;;36.93;24.23;;;3.10;99.90;;;;;;5037861;28;20442;-59
2021/01/03 07:54:56;;;;;;;32.70;21.70;;;3.10;99.90;;;;;;5041852;28;20429;-59
2021/01/03 07:57:26;;;;;;;37.30;24.63;;;3.10;99.90;;;;;;5040437;28;20935;-51
2021/01/03 07:59:56;;;;;;;37.93;23.80;;;3.20;99.90;;;;;;5037172;28;20442;-59
2021/01/03 08:02:29;;;;;;;37.57;24.20;;;3.20;99.90;;;;;;5044055;28;20430;-54
2021/01/03 08:04:56;;;;;;;37.47;23.77;;;3.20;99.90;;;;;;5039873;28;20442;-55
2021/01/03 08:07:23;;;;;;;34.90;22.90;;;3.30;99.90;;;;;;5040424;28;20442;-56
2021/01/03 08:09:49;;;;;;;36.10;23.77;;;3.30;99.90;;;;;;5039437;28;20973;-52
2021/01/03 08:12:30;;;;;;;34.03;23.17;;;3.30;99.90;;;;;;5037865;28;20426;-58
2021/01/03 08:15:08;;;;;;;34.70;23.13;;;3.30;99.90;;;;;;5046591;28;20206;-55
2021/01/03 08:17:37;;;;;;;40.37;23.93;;;3.30;99.90;;;;;;5035053;28;20437;-56
2021/01/03 08:20:06;;;;;;;32.87;22.27;;;3.40;99.90;;;;;;5039122;28;20435;-59
2021/01/03 08:22:32;;;;;;;36.33;23.53;;;3.50;99.90;;;;;;5036663;28;20810;-56
2021/01/03 08:25:00;;;;;;;34.17;22.83;;;3.50;99.90;;;;;;5035417;28;20445;-54
2021/01/03 08:27:43;;;;;;;39.33;24.23;;;3.50;99.90;;;;;;5043732;28;20168;-59
2021/01/03 08:30:24;;;;;;;45.40;30.00;;;3.50;99.90;;;;;;5041027;28;20414;-56
2021/01/03 08:32:51;;;;;;;35.37;24.03;;;3.50;99.90;;;;;;5034730;28;20413;-58
2021/01/03 08:35:26;;;;;;;37.93;24.37;;;3.40;99.90;;;;;;5041158;28;20418;-58
2021/01/03 08:37:52;;;;;;;36.47;23.30;;;3.40;99.90;;;;;;5040674;28;20429;-59
2021/01/03 08:40:28;;;;;;;37.07;24.80;;;3.40;99.90;;;;;;5037814;28;20423;-55
2021/01/03 08:43:24;;;;;;;34.60;22.77;;;3.40;99.90;;;;;;5023651;28;20621;-54
2021/01/03 08:45:50;;;;;;;32.10;22.37;;;3.40;99.90;;;;;;5020280;28;20439;-58
2021/01/03 08:48:25;;;;;;;37.93;25.33;;;3.40;99.90;;;;;;5020273;28;20435;-59
2021/01/03 08:51:15;;;;;;;37.33;22.50;;;3.40;99.90;;;;;;5017011;28;20421;-52
2021/01/03 08:53:41;;;;;;;40.03;25.50;;;3.40;99.90;;;;;;5034036;28;20473;-59
2021/01/03 08:56:20;;;;;;;35.30;23.37;;;3.30;99.90;;;;;;5024547;28;20467;-59
2021/01/03 08:58:47;;;;;;;38.67;24.07;;;2.80;99.90;;;;;;5036604;28;20434;-51
2021/01/03 09:01:20;;;;;;;35.67;22.50;;;3.00;99.90;;;;;;5037425;28;20473;-59
2021/01/03 09:03:50;;;;;;;48.87;26.33;;;2.90;99.90;;;;;;5038766;28;20805;-59
2021/01/03 09:06:16;;;;;;;35.57;23.33;;;2.60;99.90;;;;;;5035089;28;20427;-59
2021/01/03 09:08:44;;;;;;;32.73;20.77;;;2.70;99.90;;;;;;5046747;28;20592;-55
2021/01/03 09:11:26;;;;;;;32.27;20.97;;;2.60;99.90;;;;;;5035666;28;20415;-56
2021/01/03 09:14:03;;;;;;;37.70;22.83;;;2.70;99.90;;;;;;5033710;28;20402;-56
2021/01/03 09:16:39;;;;;;;38.40;24.73;;;2.60;99.90;;;;;;5031991;28;20464;-57
2021/01/03 09:19:14;;;;;;;37.20;23.50;;;2.60;99.90;;;;;;5036289;28;20450;-54
2021/01/03 09:22:00;;;;;;;41.63;25.47;;;2.50;99.90;;;;;;5038943;28;20410;-54
2021/01/03 09:24:31;;;;;;;34.53;22.07;;;2.40;99.90;;;;;;5048808;28;20426;-58
2021/01/03 09:26:59;;;;;;;32.73;20.53;;;2.40;99.90;;;;;;5035959;28;20441;-59
2021/01/03 09:29:28;;;;;;;36.63;22.43;;;2.50;99.90;;;;;;5016263;28;20466;-60
2021/01/03 09:32:02;;;;;;;37.73;23.17;;;2.50;99.90;;;;;;5039787;28;20415;-59
2021/01/03 09:34:51;;;;;;;34.63;21.03;;;2.40;99.90;;;;;;5030999;28;20434;-59
2021/01/03 09:37:27;;;;;;;34.00;22.57;;;2.50;99.90;;;;;;5017338;28;21027;-59
2021/01/03 09:40:25;;;;;;;37.00;22.73;;;2.60;99.90;;;;;;5040218;28;20463;-56
2021/01/03 09:43:29;;;;;;;47.80;25.50;;;2.60;99.90;;;;;;5033405;28;20502;-60
2021/01/03 09:46:20;;;;;;;39.10;22.93;;;2.50;99.90;;;;;;5024550;28;20429;-56
2021/01/03 09:48:46;;;;;;;37.37;22.17;;;2.50;99.90;;;;;;5016865;28;20549;-60
2021/01/03 09:51:11;;;;;;;37.80;22.07;;;2.50;99.90;;;;;;5029979;28;20577;-60
2021/01/03 09:53:40;;;;;;;35.07;20.87;;;2.50;99.90;;;;;;5037815;28;20458;-57
2021/01/03 09:56:33;;;;;;;44.37;25.63;;;2.60;99.90;;;;;;5044051;28;20235;-57
2021/01/03 09:59:09;;;;;;;38.23;22.30;;;2.50;99.90;;;;;;5035837;28;20517;-55
2021/01/03 10:01:36;;;;;;;45.37;25.37;;;2.60;99.90;;;;;;5036358;28;20481;-56
2021/01/03 10:04:29;;;;;;;41.30;23.30;;;2.60;99.90;;;;;;5036762;28;20434;-60
2021/01/03 10:07:13;;;;;;;40.00;23.27;;;2.60;99.90;;;;;;5035345;28;20430;-58
2021/01/03 10:09:38;;;;;;;43.23;24.73;;;2.70;99.90;;;;;;5030777;28;20441;-58
2021/01/03 10:12:20;;;;;;;37.83;21.80;;;2.70;99.90;;;;;;5041469;28;20430;-57
2021/01/03 10:14:58;;;;;;;37.80;22.17;;;2.70;99.90;;;;;;5031648;28;20186;-60
2021/01/03 10:17:24;;;;;;;38.23;21.77;;;2.70;99.90;;;;;;5021666;28;21061;-58
2021/01/03 10:19:49;;;;;;;34.33;21.33;;;2.60;99.90;;;;;;5035010;28;20443;-56
2021/01/03 10:22:31;;;;;;;37.40;22.30;;;2.60;99.90;;;;;;5039352;28;20206;-55
2021/01/03 10:24:59;;;;;;;34.47;21.40;;;2.60;99.90;;;;;;5037843;28;20191;-55
2021/01/03 10:27:25;;;;;;;34.13;20.67;;;2.60;99.90;;;;;;5038361;28;20490;-59
2021/01/03 10:29:51;;;;;;;36.33;20.90;;;2.60;99.90;;;;;;5038453;28;20942;-58
2021/01/03 10:32:17;;;;;;;31.43;20.00;;;2.50;99.90;;;;;;5039246;28;20457;-51
2021/01/03 10:34:43;;;;;;;34.83;20.93;;;2.60;99.90;;;;;;5036427;28;20650;-51
2021/01/03 10:37:08;;;;;;;38.07;21.87;;;2.50;99.90;;;;;;5036646;28;20207;-61
2021/01/03 10:39:34;;;;;;;34.13;19.93;;;2.60;99.90;;;;;;5042552;28;20204;-59
2021/01/03 10:42:04;;;;;;;35.63;21.10;;;2.60;99.90;;;;;;5041533;28;20176;-58
2021/01/03 10:44:30;;;;;;;36.40;21.93;;;2.70;99.90;;;;;;5009814;28;20238;-57
2021/01/03 10:46:56;;;;;;;32.60;20.33;;;2.60;99.90;;;;;;5033200;28;20422;-57
2021/01/03 10:49:24;;;;;;;37.17;22.00;;;2.60;99.90;;;;;;5043665;28;20204;-59
2021/01/03 10:51:50;;;;;;;34.83;20.90;;;3.60;99.90;;;;;;5012557;28;20458;-57
2021/01/03 10:54:22;;;;;;;37.50;21.70;;;2.50;99.90;;;;;;5038193;28;20533;-59
2021/01/03 10:56:50;;;;;;;35.78;22.48;;;2.60;99.90;;;;;;5031316;28;20452;-56
2021/01/03 10:59:16;;;;;;;33.17;21.23;;;2.70;99.90;;;;;;5034637;28;20282;-52
2021/01/03 11:01:42;;;;;;;35.03;21.53;;;2.70;99.90;;;;;;5039160;28;20497;-49
2021/01/03 11:04:08;;;;;;;34.53;22.13;;;2.70;99.90;;;;;;5040720;28;20934;-51
2021/01/03 11:06:39;;;;;;;33.13;20.50;;;2.80;99.90;;;;;;5024859;28;20414;-57
2021/01/03 11:09:07;;;;;;;35.30;20.70;;;3.90;99.90;;;;;;5025082;28;20954;-55
2021/01/03 11:11:32;;;;;;;36.83;22.30;;;2.80;99.90;;;;;;5043367;28;20414;-59
2021/01/03 11:13:58;;;;;;;34.90;21.70;;;2.70;99.90;;;;;;5038807;28;20767;-56
2021/01/03 11:16:36;;;;;;;32.97;20.13;;;2.50;99.90;;;;;;5039393;28;20602;-55
2021/01/03 11:19:03;;;;;;;32.43;20.00;;;2.50;99.90;;;;;;5024487;28;20207;-56
2021/01/03 11:21:31;;;;;;;32.27;19.53;;;2.60;99.90;;;;;;5037958;28;20478;-59
2021/01/03 11:23:57;;;;;;;27.43;18.17;;;2.90;99.90;;;;;;5033747;28;20422;-57
2021/01/03 11:26:33;;;;;;;25.97;16.57;;;3.10;99.90;;;;;;5034560;28;20469;-59
2021/01/03 11:29:00;;;;;;;27.07;17.70;;;3.40;99.90;;;;;;5032695;28;20853;-60
2021/01/03 11:31:49;;;;;;;32.83;19.67;;;3.60;99.90;;;;;;5030142;28;20541;-59
2021/01/03 11:34:19;;;;;;;29.00;17.50;;;3.80;99.90;;;;;;5038977;28;20442;-60
2021/01/03 11:36:47;;;;;;;29.33;17.23;;;4.00;99.90;;;;;;5023650;28;20222;-53
2021/01/03 11:39:13;;;;;;;27.03;17.37;;;4.10;99.90;;;;;;5034024;28;20200;-60
2021/01/03 11:41:39;;;;;;;30.57;18.90;;;4.20;99.90;;;;;;5027693;28;20250;-55
2021/01/03 11:44:05;;;;;;;29.93;19.80;;;4.30;99.90;;;;;;5033553;28;20279;-60
2021/01/03 11:46:31;;;;;;;28.57;18.97;;;4.40;99.90;;;;;;5040025;28;20188;-60
2021/01/03 11:48:56;;;;;;;28.10;18.43;;;4.50;99.90;;;;;;5013760;28;20211;-58
2021/01/03 11:51:22;;;;;;;30.27;18.57;;;4.60;99.90;;;;;;5039747;28;20187;-62
2021/01/03 11:53:48;;;;;;;33.03;20.17;;;4.60;99.90;;;;;;5036817;28;20206;-61
2021/01/03 11:56:18;;;;;;;30.10;18.93;;;4.70;99.90;;;;;;5045393;28;20219;-56
2021/01/03 11:58:44;;;;;;;29.80;18.07;;;4.70;99.90;;;;;;5047012;28;20210;-58
2021/01/03 12:01:10;;;;;;;25.23;16.37;;;4.80;99.90;;;;;;5027537;28;20223;-58
2021/01/03 12:03:35;;;;;;;26.23;16.67;;;4.70;99.90;;;;;;5034037;28;20195;-60
2021/01/03 12:06:01;;;;;;;25.20;16.07;;;4.80;99.90;;;;;;5028859;28;20195;-55
2021/01/03 12:08:26;;;;;;;26.37;16.23;;;4.80;99.90;;;;;;5033226;28;20216;-54
2021/01/03 12:10:52;;;;;;;23.50;14.53;;;4.60;99.90;;;;;;5034647;28;20188;-61
2021/01/03 12:13:18;;;;;;;20.23;13.83;;;4.40;99.90;;;;;;5033346;28;20222;-59
2021/01/03 12:15:43;;;;;;;26.67;15.97;;;4.40;99.90;;;;;;5013235;28;20212;-57
2021/01/03 12:18:09;;;;;;;25.53;15.27;;;4.40;99.90;;;;;;5022502;28;20208;-56
2021/01/03 12:20:34;;;;;;;22.80;13.47;;;4.40;99.90;;;;;;5032330;28;20188;-60
2021/01/03 12:23:00;;;;;;;21.33;14.43;;;4.30;99.90;;;;;;5033506;28;20211;-59
2021/01/03 12:25:25;;;;;;;24.03;15.97;;;4.20;99.90;;;;;;5036263;28;20188;-61
2021/01/03 12:27:51;;;;;;;29.20;17.47;;;4.10;99.90;;;;;;5033679;28;20210;-60
2021/01/03 12:30:17;;;;;;;23.73;14.83;;;4.00;99.90;;;;;;5018573;28;20188;-56
2021/01/03 12:32:43;;;;;;;24.63;15.97;;;4.00;99.90;;;;;;5042746;28;20198;-58
2021/01/03 12:35:09;;;;;;;21.67;14.67;;;4.00;99.90;;;;;;5038546;28;20249;-57
2021/01/03 12:37:37;;;;;;;24.10;16.37;;;4.00;99.90;;;;;;5040482;28;20199;-60
2021/01/03 12:40:13;;;;;;;27.03;16.50;;;4.00;99.90;;;;;;5033930;28;20183;-58
2021/01/03 12:42:39;;;;;;;25.77;14.93;;;3.90;99.90;;;;;;5013896;28;20710;-59
2021/01/03 12:45:08;;;;;;;22.20;14.90;;;3.90;99.90;;;;;;4982789;28;20487;-55
2021/01/03 12:47:33;;;;;;;21.97;14.93;;;3.80;99.90;;;;;;4985580;28;20193;-59
2021/01/03 12:49:59;;;;;;;23.57;15.63;;;3.80;99.90;;;;;;4994907;28;20219;-59
2021/01/03 12:52:25;;;;;;;24.20;14.87;;;3.80;99.90;;;;;;5000303;28;20192;-59
2021/01/03 12:54:50;;;;;;;27.67;16.70;;;3.80;99.90;;;;;;4993450;28;20300;-58
2021/01/03 12:57:16;;;;;;;26.70;16.77;;;3.70;99.90;;;;;;4993414;28;20228;-59
2021/01/03 12:59:41;;;;;;;29.37;17.67;;;3.70;99.90;;;;;;4997518;28;20216;-58
2021/01/03 13:02:07;;;;;;;30.40;18.47;;;3.70;99.90;;;;;;4986970;28;20193;-60